sensor_id;sensor_type;location;lat;lon;timestamp;pressure;altitude;pressure_sealevel;temperature;humidity
80781;BME280;70341;56.408;10.874;2023-09-12T00:02:17;101073.36;;;19.99;76.40
80781;BME280;70341;56.408;10.874;2023-09-12T00:04:44;101080.91;;;19.97;76.23
80781;BME280;70341;56.408;10.874;2023-09-12T00:07:11;101081.70;;;19.94;76.58
80781;BME280;70341;56.408;10.874;2023-09-12T00:09:40;101079.13;;;19.92;76.49
80781;BME280;70341;56.408;10.874;2023-09-12T00:12:06;101081.34;;;19.91;76.64
80781;BME280;70341;56.408;10.874;2023-09-12T00:14:34;101082.34;;;19.90;76.84
80781;BME280;70341;56.408;10.874;2023-09-12T00:17:02;101085.61;;;19.87;76.65
80781;BME280;70341;56.408;10.874;2023-09-12T00:19:29;101082.36;;;19.87;76.73
80781;BME280;70341;56.408;10.874;2023-09-12T00:21:56;101085.79;;;19.89;76.70
80781;BME280;70341;56.408;10.874;2023-09-12T00:24:24;101087.94;;;19.92;76.80
80781;BME280;70341;56.408;10.874;2023-09-12T00:26:51;101086.04;;;19.94;76.56
80781;BME280;70341;56.408;10.874;2023-09-12T00:29:18;101090.25;;;19.95;76.62
80781;BME280;70341;56.408;10.874;2023-09-12T00:31:46;101090.61;;;19.97;76.49
80781;BME280;70341;56.408;10.874;2023-09-12T00:34:17;101092.64;;;20.01;76.53
80781;BME280;70341;56.408;10.874;2023-09-12T00:36:45;101090.50;;;20.04;76.24
80781;BME280;70341;56.408;10.874;2023-09-12T00:39:12;101091.21;;;20.07;76.17
80781;BME280;70341;56.408;10.874;2023-09-12T00:41:39;101092.10;;;20.07;76.19
80781;BME280;70341;56.408;10.874;2023-09-12T00:44:07;101089.98;;;20.06;76.32
80781;BME280;70341;56.408;10.874;2023-09-12T00:46:36;101087.25;;;20.03;75.98
80781;BME280;70341;56.408;10.874;2023-09-12T00:49:08;101087.86;;;20.03;76.11
80781;BME280;70341;56.408;10.874;2023-09-12T00:51:36;101092.15;;;20.03;76.31
80781;BME280;70341;56.408;10.874;2023-09-12T00:54:05;101093.17;;;20.04;76.15
80781;BME280;70341;56.408;10.874;2023-09-12T00:56:33;101087.40;;;20.07;76.05
80781;BME280;70341;56.408;10.874;2023-09-12T00:59:01;101094.47;;;20.09;75.96
80781;BME280;70341;56.408;10.874;2023-09-12T01:01:32;101099.56;;;20.13;75.84
80781;BME280;70341;56.408;10.874;2023-09-12T01:04:00;101100.09;;;20.15;75.74
80781;BME280;70341;56.408;10.874;2023-09-12T01:06:31;101098.63;;;20.16;75.62
80781;BME280;70341;56.408;10.874;2023-09-12T01:08:58;101106.04;;;20.16;75.84
80781;BME280;70341;56.408;10.874;2023-09-12T01:11:28;101108.07;;;20.13;75.71
80781;BME280;70341;56.408;10.874;2023-09-12T01:13:55;101111.63;;;20.09;75.97
80781;BME280;70341;56.408;10.874;2023-09-12T01:16:22;101117.86;;;20.07;75.97
80781;BME280;70341;56.408;10.874;2023-09-12T01:18:50;101120.40;;;20.04;76.14
80781;BME280;70341;56.408;10.874;2023-09-12T01:24:45;101121.52;;;19.97;76.62
80781;BME280;70341;56.408;10.874;2023-09-12T01:27:46;101122.75;;;19.95;76.68
80781;BME280;70341;56.408;10.874;2023-09-12T01:30:20;101121.39;;;19.91;76.80
80781;BME280;70341;56.408;10.874;2023-09-12T01:32:48;101119.73;;;19.89;77.01
80781;BME280;70341;56.408;10.874;2023-09-12T01:35:17;101121.02;;;19.89;77.20
80781;BME280;70341;56.408;10.874;2023-09-12T01:37:44;101118.11;;;19.89;77.11
80781;BME280;70341;56.408;10.874;2023-09-12T01:40:11;101119.13;;;19.90;77.24
80781;BME280;70341;56.408;10.874;2023-09-12T01:42:45;101118.45;;;19.92;77.20
80781;BME280;70341;56.408;10.874;2023-09-12T01:45:18;101119.70;;;19.95;76.98
80781;BME280;70341;56.408;10.874;2023-09-12T01:47:51;101120.36;;;19.97;77.08
80781;BME280;70341;56.408;10.874;2023-09-12T01:50:20;101127.58;;;20.02;77.02
80781;BME280;70341;56.408;10.874;2023-09-12T01:52:50;101124.48;;;20.05;77.01
80781;BME280;70341;56.408;10.874;2023-09-12T01:55:18;101113.93;;;20.09;76.86
80781;BME280;70341;56.408;10.874;2023-09-12T01:57:46;101107.02;;;20.12;76.95
80781;BME280;70341;56.408;10.874;2023-09-12T02:00:14;101111.14;;;20.13;76.72
80781;BME280;70341;56.408;10.874;2023-09-12T02:02:41;101108.56;;;20.16;76.53
80781;BME280;70341;56.408;10.874;2023-09-12T02:05:16;101121.98;;;20.20;76.51
80781;BME280;70341;56.408;10.874;2023-09-12T02:07:45;101120.14;;;20.22;76.53
80781;BME280;70341;56.408;10.874;2023-09-12T02:10:13;101120.20;;;20.26;76.37
80781;BME280;70341;56.408;10.874;2023-09-12T02:12:43;101121.73;;;20.27;76.36
80781;BME280;70341;56.408;10.874;2023-09-12T02:15:10;101123.83;;;20.28;76.25
80781;BME280;70341;56.408;10.874;2023-09-12T02:17:37;101124.81;;;20.27;76.19
80781;BME280;70341;56.408;10.874;2023-09-12T02:20:09;101124.64;;;20.27;76.17
80781;BME280;70341;56.408;10.874;2023-09-12T02:22:36;101129.73;;;20.29;76.33
80781;BME280;70341;56.408;10.874;2023-09-12T02:25:07;101129.61;;;20.28;76.21
80781;BME280;70341;56.408;10.874;2023-09-12T02:27:34;101128.90;;;20.28;76.36
80781;BME280;70341;56.408;10.874;2023-09-12T02:30:04;101127.30;;;20.28;76.31
80781;BME280;70341;56.408;10.874;2023-09-12T02:32:32;101128.02;;;20.28;76.45
80781;BME280;70341;56.408;10.874;2023-09-12T02:34:58;101127.01;;;20.29;76.29
80781;BME280;70341;56.408;10.874;2023-09-12T02:37:27;101125.08;;;20.31;76.37
80781;BME280;70341;56.408;10.874;2023-09-12T02:39:54;101121.85;;;20.31;76.28
80781;BME280;70341;56.408;10.874;2023-09-12T02:42:21;101124.38;;;20.36;76.46
80781;BME280;70341;56.408;10.874;2023-09-12T02:44:49;101128.67;;;20.39;76.29
80781;BME280;70341;56.408;10.874;2023-09-12T02:47:16;101132.09;;;20.41;76.06
80781;BME280;70341;56.408;10.874;2023-09-12T02:49:43;101131.02;;;20.44;76.01
80781;BME280;70341;56.408;10.874;2023-09-12T02:52:11;101125.71;;;20.48;76.06
80781;BME280;70341;56.408;10.874;2023-09-12T02:54:38;101126.45;;;20.52;75.78
80781;BME280;70341;56.408;10.874;2023-09-12T02:57:05;101123.11;;;20.53;75.65
80781;BME280;70341;56.408;10.874;2023-09-12T02:59:33;101120.04;;;20.53;75.71
80781;BME280;70341;56.408;10.874;2023-09-12T03:02:00;101117.98;;;20.52;75.81
80781;BME280;70341;56.408;10.874;2023-09-12T03:04:27;101119.33;;;20.51;75.52
80781;BME280;70341;56.408;10.874;2023-09-12T03:06:55;101114.70;;;20.48;75.60
80781;BME280;70341;56.408;10.874;2023-09-12T03:09:22;101112.22;;;20.45;75.82
80781;BME280;70341;56.408;10.874;2023-09-12T03:11:49;101109.05;;;20.43;75.86
80781;BME280;70341;56.408;10.874;2023-09-12T03:14:17;101107.39;;;20.44;75.83
80781;BME280;70341;56.408;10.874;2023-09-12T03:16:44;101110.73;;;20.45;75.67
80781;BME280;70341;56.408;10.874;2023-09-12T03:19:11;101111.49;;;20.47;75.79
80781;BME280;70341;56.408;10.874;2023-09-12T03:21:40;101113.94;;;20.50;75.52
80781;BME280;70341;56.408;10.874;2023-09-12T03:24:07;101116.71;;;20.54;75.55
80781;BME280;70341;56.408;10.874;2023-09-12T03:26:36;101116.22;;;20.55;75.24
80781;BME280;70341;56.408;10.874;2023-09-12T03:29:04;101123.73;;;20.57;75.40
80781;BME280;70341;56.408;10.874;2023-09-12T03:31:31;101118.23;;;20.55;75.27
80781;BME280;70341;56.408;10.874;2023-09-12T03:33:59;101119.35;;;20.55;75.24
80781;BME280;70341;56.408;10.874;2023-09-12T03:36:27;101116.69;;;20.54;75.30
80781;BME280;70341;56.408;10.874;2023-09-12T03:38:54;101113.68;;;20.56;75.27
80781;BME280;70341;56.408;10.874;2023-09-12T03:41:21;101115.31;;;20.56;75.06
80781;BME280;70341;56.408;10.874;2023-09-12T03:43:48;101123.65;;;20.55;75.16
80781;BME280;70341;56.408;10.874;2023-09-12T03:46:15;101126.81;;;20.54;75.20
80781;BME280;70341;56.408;10.874;2023-09-12T03:48:42;101125.79;;;20.51;75.11
80781;BME280;70341;56.408;10.874;2023-09-12T03:51:09;101124.35;;;20.49;75.22
80781;BME280;70341;56.408;10.874;2023-09-12T03:53:36;101120.10;;;20.50;75.24
80781;BME280;70341;56.408;10.874;2023-09-12T03:56:03;101120.57;;;20.51;75.26
80781;BME280;70341;56.408;10.874;2023-09-12T03:58:31;101126.11;;;20.51;75.10
80781;BME280;70341;56.408;10.874;2023-09-12T04:00:59;101129.73;;;20.51;75.08
80781;BME280;70341;56.408;10.874;2023-09-12T04:03:26;101129.36;;;20.49;75.05
80781;BME280;70341;56.408;10.874;2023-09-12T04:05:54;101125.78;;;20.47;75.07
80781;BME280;70341;56.408;10.874;2023-09-12T04:08:21;101127.02;;;20.45;74.94
80781;BME280;70341;56.408;10.874;2023-09-12T04:10:48;101122.48;;;20.42;74.93
80781;BME280;70341;56.408;10.874;2023-09-12T04:13:16;101124.66;;;20.40;74.97
80781;BME280;70341;56.408;10.874;2023-09-12T04:15:43;101121.89;;;20.36;74.87
80781;BME280;70341;56.408;10.874;2023-09-12T04:18:10;101116.79;;;20.31;74.92
80781;BME280;70341;56.408;10.874;2023-09-12T04:20:38;101117.95;;;20.25;74.92
80781;BME280;70341;56.408;10.874;2023-09-12T04:23:05;101122.00;;;20.17;74.80
80781;BME280;70341;56.408;10.874;2023-09-12T04:25:32;101125.16;;;20.11;74.96
80781;BME280;70341;56.408;10.874;2023-09-12T04:28:00;101127.58;;;20.08;74.71
80781;BME280;70341;56.408;10.874;2023-09-12T04:30:27;101127.32;;;20.01;74.71
80781;BME280;70341;56.408;10.874;2023-09-12T04:32:54;101123.73;;;19.94;74.70
80781;BME280;70341;56.408;10.874;2023-09-12T04:35:22;101125.86;;;19.87;74.72
80781;BME280;70341;56.408;10.874;2023-09-12T04:37:49;101129.45;;;19.80;74.78
80781;BME280;70341;56.408;10.874;2023-09-12T04:40:16;101134.98;;;19.75;74.69
80781;BME280;70341;56.408;10.874;2023-09-12T04:42:44;101140.00;;;19.73;74.59
80781;BME280;70341;56.408;10.874;2023-09-12T04:45:11;101141.61;;;19.71;74.50
80781;BME280;70341;56.408;10.874;2023-09-12T04:47:38;101144.09;;;19.67;74.38
80781;BME280;70341;56.408;10.874;2023-09-12T04:50:07;101145.61;;;19.60;74.20
80781;BME280;70341;56.408;10.874;2023-09-12T04:52:34;101147.35;;;19.53;74.01
80781;BME280;70341;56.408;10.874;2023-09-12T04:55:01;101147.27;;;19.52;73.91
80781;BME280;70341;56.408;10.874;2023-09-12T04:57:28;101144.61;;;19.51;73.74
80781;BME280;70341;56.408;10.874;2023-09-12T04:59:55;101138.63;;;19.52;73.61
80781;BME280;70341;56.408;10.874;2023-09-12T05:02:22;101139.57;;;19.51;73.65
80781;BME280;70341;56.408;10.874;2023-09-12T05:04:50;101140.67;;;19.54;73.49
80781;BME280;70341;56.408;10.874;2023-09-12T05:07:17;101142.14;;;19.56;73.28
80781;BME280;70341;56.408;10.874;2023-09-12T05:09:44;101143.06;;;19.56;73.10
80781;BME280;70341;56.408;10.874;2023-09-12T05:12:12;101139.17;;;19.57;73.08
80781;BME280;70341;56.408;10.874;2023-09-12T05:14:39;101143.64;;;19.63;73.00
80781;BME280;70341;56.408;10.874;2023-09-12T05:17:06;101144.88;;;19.65;72.75
80781;BME280;70341;56.408;10.874;2023-09-12T05:19:34;101144.52;;;19.68;72.77
80781;BME280;70341;56.408;10.874;2023-09-12T05:22:01;101142.17;;;19.70;72.74
80781;BME280;70341;56.408;10.874;2023-09-12T05:24:28;101135.36;;;19.75;72.76
80781;BME280;70341;56.408;10.874;2023-09-12T05:26:55;101136.64;;;19.80;72.55
80781;BME280;70341;56.408;10.874;2023-09-12T05:29:22;101142.48;;;19.86;72.26
80781;BME280;70341;56.408;10.874;2023-09-12T05:31:49;101143.81;;;19.90;72.19
80781;BME280;70341;56.408;10.874;2023-09-12T05:34:17;101147.93;;;19.93;72.12
80781;BME280;70341;56.408;10.874;2023-09-12T05:36:44;101140.46;;;19.97;72.13
80781;BME280;70341;56.408;10.874;2023-09-12T05:39:11;101138.63;;;20.02;71.96
80781;BME280;70341;56.408;10.874;2023-09-12T05:41:39;101135.98;;;20.06;71.85
80781;BME280;70341;56.408;10.874;2023-09-12T05:44:06;101136.81;;;20.10;71.53
80781;BME280;70341;56.408;10.874;2023-09-12T05:46:33;101144.31;;;20.15;71.26
80781;BME280;70341;56.408;10.874;2023-09-12T05:49:01;101147.17;;;20.20;71.45
80781;BME280;70341;56.408;10.874;2023-09-12T05:51:28;101148.39;;;20.26;71.16
80781;BME280;70341;56.408;10.874;2023-09-12T05:53:55;101144.34;;;20.29;71.01
80781;BME280;70341;56.408;10.874;2023-09-12T05:56:23;101146.98;;;20.33;70.89
80781;BME280;70341;56.408;10.874;2023-09-12T05:58:50;101150.73;;;20.33;70.76
80781;BME280;70341;56.408;10.874;2023-09-12T06:01:17;101151.02;;;20.32;70.93
80781;BME280;70341;56.408;10.874;2023-09-12T06:03:46;101154.77;;;20.30;70.88
80781;BME280;70341;56.408;10.874;2023-09-12T06:06:14;101155.27;;;20.28;70.92
80781;BME280;70341;56.408;10.874;2023-09-12T06:08:41;101155.39;;;20.26;71.01
80781;BME280;70341;56.408;10.874;2023-09-12T06:11:09;101155.48;;;20.25;71.21
80781;BME280;70341;56.408;10.874;2023-09-12T06:13:36;101163.95;;;20.23;71.17
80781;BME280;70341;56.408;10.874;2023-09-12T06:16:05;101163.08;;;20.20;71.36
80781;BME280;70341;56.408;10.874;2023-09-12T06:18:33;101161.77;;;20.19;71.53
80781;BME280;70341;56.408;10.874;2023-09-12T06:21:00;101170.63;;;20.21;71.51
80781;BME280;70341;56.408;10.874;2023-09-12T06:23:27;101169.36;;;20.23;71.55
80781;BME280;70341;56.408;10.874;2023-09-12T06:25:55;101176.08;;;20.30;71.56
80781;BME280;70341;56.408;10.874;2023-09-12T06:28:30;101175.70;;;20.38;71.44
80781;BME280;70341;56.408;10.874;2023-09-12T06:30:58;101174.45;;;20.45;71.17
80781;BME280;70341;56.408;10.874;2023-09-12T06:33:26;101177.73;;;20.50;71.08
80781;BME280;70341;56.408;10.874;2023-09-12T06:35:53;101178.44;;;20.54;70.90
80781;BME280;70341;56.408;10.874;2023-09-12T06:38:23;101183.39;;;20.59;70.52
80781;BME280;70341;56.408;10.874;2023-09-12T06:40:50;101182.89;;;20.63;70.52
80781;BME280;70341;56.408;10.874;2023-09-12T06:43:17;101170.48;;;20.67;70.23
80781;BME280;70341;56.408;10.874;2023-09-12T06:45:45;101175.61;;;20.70;70.11
80781;BME280;70341;56.408;10.874;2023-09-12T06:48:12;101176.88;;;20.73;70.25
80781;BME280;70341;56.408;10.874;2023-09-12T06:50:39;101175.20;;;20.74;70.39
80781;BME280;70341;56.408;10.874;2023-09-12T06:53:07;101181.73;;;20.73;70.31
80781;BME280;70341;56.408;10.874;2023-09-12T06:55:34;101182.12;;;20.73;70.17
80781;BME280;70341;56.408;10.874;2023-09-12T06:58:01;101190.25;;;20.70;70.16
80781;BME280;70341;56.408;10.874;2023-09-12T07:00:30;101188.67;;;20.67;70.32
80781;BME280;70341;56.408;10.874;2023-09-12T07:02:57;101189.41;;;20.62;70.49
80781;BME280;70341;56.408;10.874;2023-09-12T07:05:24;101186.05;;;20.59;70.67
80781;BME280;70341;56.408;10.874;2023-09-12T07:07:52;101183.23;;;20.53;70.65
80781;BME280;70341;56.408;10.874;2023-09-12T07:10:19;101183.20;;;20.49;70.75
80781;BME280;70341;56.408;10.874;2023-09-12T07:12:53;101186.72;;;20.45;70.73
80781;BME280;70341;56.408;10.874;2023-09-12T07:15:20;101192.83;;;20.43;70.80
80781;BME280;70341;56.408;10.874;2023-09-12T07:17:47;101197.56;;;20.40;70.72
80781;BME280;70341;56.408;10.874;2023-09-12T07:20:16;101191.70;;;20.38;70.92
80781;BME280;70341;56.408;10.874;2023-09-12T07:22:43;101187.20;;;20.38;70.85
80781;BME280;70341;56.408;10.874;2023-09-12T07:25:10;101186.30;;;20.39;71.08
80781;BME280;70341;56.408;10.874;2023-09-12T07:27:39;101187.79;;;20.43;70.82
80781;BME280;70341;56.408;10.874;2023-09-12T07:30:07;101182.52;;;20.43;70.85
80781;BME280;70341;56.408;10.874;2023-09-12T07:32:37;101180.62;;;20.45;70.76
80781;BME280;70341;56.408;10.874;2023-09-12T07:35:04;101185.98;;;20.48;70.83
80781;BME280;70341;56.408;10.874;2023-09-12T07:37:31;101189.70;;;20.51;70.84
80781;BME280;70341;56.408;10.874;2023-09-12T07:39:59;101196.28;;;20.52;70.62
80781;BME280;70341;56.408;10.874;2023-09-12T07:42:26;101198.10;;;20.54;70.44
80781;BME280;70341;56.408;10.874;2023-09-12T07:44:53;101201.64;;;20.56;70.46
80781;BME280;70341;56.408;10.874;2023-09-12T07:47:21;101201.07;;;20.56;70.48
80781;BME280;70341;56.408;10.874;2023-09-12T07:49:54;101201.30;;;20.58;70.33
80781;BME280;70341;56.408;10.874;2023-09-12T07:52:22;101204.41;;;20.59;70.35
80781;BME280;70341;56.408;10.874;2023-09-12T07:54:49;101206.30;;;20.63;70.57
80781;BME280;70341;56.408;10.874;2023-09-12T07:57:16;101210.60;;;20.69;70.64
80781;BME280;70341;56.408;10.874;2023-09-12T07:59:44;101211.22;;;20.73;70.33
80781;BME280;70341;56.408;10.874;2023-09-12T08:02:11;101211.38;;;20.75;70.38
80781;BME280;70341;56.408;10.874;2023-09-12T08:04:38;101208.55;;;20.79;70.32
80781;BME280;70341;56.408;10.874;2023-09-12T08:07:07;101209.26;;;20.84;70.24
80781;BME280;70341;56.408;10.874;2023-09-12T08:09:54;101208.08;;;20.92;69.78
80781;BME280;70341;56.408;10.874;2023-09-12T08:12:24;101205.28;;;21.08;69.59
80781;BME280;70341;56.408;10.874;2023-09-12T08:14:53;101212.25;;;21.23;69.37
80781;BME280;70341;56.408;10.874;2023-09-12T08:17:22;101210.73;;;21.38;68.93
80781;BME280;70341;56.408;10.874;2023-09-12T08:19:49;101214.39;;;21.49;68.53
80781;BME280;70341;56.408;10.874;2023-09-12T08:22:17;101212.80;;;21.56;68.23
80781;BME280;70341;56.408;10.874;2023-09-12T08:24:45;101213.39;;;21.67;68.17
80781;BME280;70341;56.408;10.874;2023-09-12T08:27:12;101221.62;;;21.74;67.79
80781;BME280;70341;56.408;10.874;2023-09-12T08:29:39;101218.64;;;21.73;67.60
80781;BME280;70341;56.408;10.874;2023-09-12T08:32:10;101221.85;;;21.69;67.78
80781;BME280;70341;56.408;10.874;2023-09-12T08:34:37;101221.66;;;21.63;67.71
80781;BME280;70341;56.408;10.874;2023-09-12T08:37:04;101215.42;;;21.61;67.92
80781;BME280;70341;56.408;10.874;2023-09-12T08:39:44;101215.59;;;21.62;68.21
80781;BME280;70341;56.408;10.874;2023-09-12T08:42:16;101220.89;;;21.61;67.85
80781;BME280;70341;56.408;10.874;2023-09-12T08:44:43;101223.14;;;21.62;68.12
80781;BME280;70341;56.408;10.874;2023-09-12T08:47:12;101219.75;;;21.66;68.13
80781;BME280;70341;56.408;10.874;2023-09-12T08:49:41;101226.70;;;21.79;67.94
80781;BME280;70341;56.408;10.874;2023-09-12T08:52:10;101226.33;;;21.88;67.41
80781;BME280;70341;56.408;10.874;2023-09-12T08:54:37;101227.03;;;21.95;67.37
80781;BME280;70341;56.408;10.874;2023-09-12T08:57:06;101233.65;;;22.07;67.36
80781;BME280;70341;56.408;10.874;2023-09-12T08:59:34;101239.36;;;22.18;66.94
80781;BME280;70341;56.408;10.874;2023-09-12T09:02:02;101240.83;;;22.24;66.51
80781;BME280;70341;56.408;10.874;2023-09-12T09:04:35;101238.01;;;22.30;66.36
80781;BME280;70341;56.408;10.874;2023-09-12T09:07:04;101232.44;;;22.41;66.43
80781;BME280;70341;56.408;10.874;2023-09-12T09:09:33;101225.33;;;22.52;66.13
80781;BME280;70341;56.408;10.874;2023-09-12T09:12:00;101228.10;;;22.71;65.68
80781;BME280;70341;56.408;10.874;2023-09-12T09:14:29;101232.81;;;22.93;65.25
80781;BME280;70341;56.408;10.874;2023-09-12T09:16:58;101233.45;;;23.11;64.73
80781;BME280;70341;56.408;10.874;2023-09-12T09:19:41;101236.05;;;23.31;64.40
80781;BME280;70341;56.408;10.874;2023-09-12T09:22:10;101234.25;;;23.69;62.80
80781;BME280;70341;56.408;10.874;2023-09-12T09:24:37;101234.87;;;23.95;62.08
80781;BME280;70341;56.408;10.874;2023-09-12T09:27:04;101230.73;;;24.07;61.29
80781;BME280;70341;56.408;10.874;2023-09-12T09:29:48;101231.99;;;24.13;60.92
80781;BME280;70341;56.408;10.874;2023-09-12T09:32:19;101226.95;;;23.88;61.54
80781;BME280;70341;56.408;10.874;2023-09-12T09:34:46;101228.98;;;23.69;61.81
80781;BME280;70341;56.408;10.874;2023-09-12T09:37:15;101226.67;;;23.64;62.11
80781;BME280;70341;56.408;10.874;2023-09-12T09:39:42;101225.75;;;23.89;61.22
80781;BME280;70341;56.408;10.874;2023-09-12T09:42:11;101219.51;;;24.08;61.01
80781;BME280;70341;56.408;10.874;2023-09-12T09:44:39;101217.03;;;24.46;60.90
80781;BME280;70341;56.408;10.874;2023-09-12T09:47:07;101212.82;;;25.42;59.02
80781;BME280;70341;56.408;10.874;2023-09-12T09:49:35;101210.67;;;25.49;58.82
80781;BME280;70341;56.408;10.874;2023-09-12T09:52:05;101210.04;;;25.39;58.75
80781;BME280;70341;56.408;10.874;2023-09-12T09:54:32;101210.30;;;25.32;57.89
80781;BME280;70341;56.408;10.874;2023-09-12T09:57:03;101210.55;;;25.43;57.20
80781;BME280;70341;56.408;10.874;2023-09-12T09:59:30;101214.98;;;25.90;55.82
80781;BME280;70341;56.408;10.874;2023-09-12T10:02:00;101217.64;;;25.85;56.11
80781;BME280;70341;56.408;10.874;2023-09-12T10:04:28;101215.23;;;25.53;55.35
80781;BME280;70341;56.408;10.874;2023-09-12T10:06:58;101215.31;;;25.29;56.18
80781;BME280;70341;56.408;10.874;2023-09-12T10:09:27;101218.61;;;25.33;56.60
80781;BME280;70341;56.408;10.874;2023-09-12T10:11:57;101222.83;;;25.40;56.29
80781;BME280;70341;56.408;10.874;2023-09-12T10:14:26;101225.52;;;25.46;55.18
80781;BME280;70341;56.408;10.874;2023-09-12T10:17:01;101217.95;;;25.32;55.05
80781;BME280;70341;56.408;10.874;2023-09-12T10:19:53;101218.13;;;25.15;55.07
80781;BME280;70341;56.408;10.874;2023-09-12T10:22:34;101218.84;;;24.97;55.78
80781;BME280;70341;56.408;10.874;2023-09-12T10:25:04;101218.64;;;24.90;56.08
80781;BME280;70341;56.408;10.874;2023-09-12T10:27:33;101218.77;;;25.02;55.83
80781;BME280;70341;56.408;10.874;2023-09-12T10:30:04;101213.86;;;25.35;55.69
80781;BME280;70341;56.408;10.874;2023-09-12T10:32:32;101214.63;;;25.92;55.18
80781;BME280;70341;56.408;10.874;2023-09-12T10:35:02;101208.41;;;26.51;53.82
80781;BME280;70341;56.408;10.874;2023-09-12T10:37:31;101202.44;;;27.01;52.49
80781;BME280;70341;56.408;10.874;2023-09-12T10:40:04;101206.70;;;27.61;51.18
80781;BME280;70341;56.408;10.874;2023-09-12T10:42:34;101209.14;;;28.05;49.22
80781;BME280;70341;56.408;10.874;2023-09-12T10:45:05;101208.06;;;28.08;49.01
80781;BME280;70341;56.408;10.874;2023-09-12T10:47:35;101215.67;;;28.02;48.95
80781;BME280;70341;56.408;10.874;2023-09-12T10:50:03;101216.11;;;27.70;49.09
80781;BME280;70341;56.408;10.874;2023-09-12T10:52:30;101217.02;;;27.37;49.51
80781;BME280;70341;56.408;10.874;2023-09-12T10:54:57;101214.04;;;27.11;49.43
80781;BME280;70341;56.408;10.874;2023-09-12T10:57:26;101209.93;;;26.95;49.96
80781;BME280;70341;56.408;10.874;2023-09-12T11:02:32;101216.40;;;26.37;51.06
80781;BME280;70341;56.408;10.874;2023-09-12T11:05:03;101227.31;;;25.81;52.75
80781;BME280;70341;56.408;10.874;2023-09-12T11:12:43;101244.06;;;23.88;57.54
80781;BME280;70341;56.408;10.874;2023-09-12T11:15:11;101249.15;;;23.58;58.75
80781;BME280;70341;56.408;10.874;2023-09-12T11:17:40;101251.80;;;23.53;59.07
80781;BME280;70341;56.408;10.874;2023-09-12T11:20:11;101253.45;;;23.63;59.45
80781;BME280;70341;56.408;10.874;2023-09-12T11:22:47;101254.44;;;23.45;59.42
80781;BME280;70341;56.408;10.874;2023-09-12T11:25:21;101257.92;;;23.11;60.31
80781;BME280;70341;56.408;10.874;2023-09-12T11:30:25;101263.25;;;22.49;62.13
80781;BME280;70341;56.408;10.874;2023-09-12T11:32:54;101260.11;;;22.27;63.20
80781;BME280;70341;56.408;10.874;2023-09-12T11:35:25;101264.33;;;22.01;64.20
80781;BME280;70341;56.408;10.874;2023-09-12T11:37:59;101270.93;;;21.71;65.36
80781;BME280;70341;56.408;10.874;2023-09-12T11:43:04;101275.80;;;21.27;66.88
80781;BME280;70341;56.408;10.874;2023-09-12T11:45:31;101277.57;;;21.15;68.01
80781;BME280;70341;56.408;10.874;2023-09-12T11:47:59;101279.39;;;21.10;68.09
80781;BME280;70341;56.408;10.874;2023-09-12T11:50:35;101281.73;;;21.20;68.46
80781;BME280;70341;56.408;10.874;2023-09-12T11:53:05;101279.04;;;21.34;68.61
80781;BME280;70341;56.408;10.874;2023-09-12T11:55:41;101281.23;;;21.38;68.77
80781;BME280;70341;56.408;10.874;2023-09-12T11:58:12;101287.13;;;21.39;68.96
80781;BME280;70341;56.408;10.874;2023-09-12T12:00:51;101290.07;;;21.34;68.70
80781;BME280;70341;56.408;10.874;2023-09-12T12:03:26;101286.34;;;21.29;68.95
80781;BME280;70341;56.408;10.874;2023-09-12T12:05:56;101287.66;;;21.30;68.85
80781;BME280;70341;56.408;10.874;2023-09-12T12:08:25;101282.52;;;21.38;69.03
80781;BME280;70341;56.408;10.874;2023-09-12T12:10:57;101283.77;;;21.43;68.73
80781;BME280;70341;56.408;10.874;2023-09-12T12:13:24;101288.96;;;21.46;68.40
80781;BME280;70341;56.408;10.874;2023-09-12T12:15:51;101290.39;;;21.44;68.12
80781;BME280;70341;56.408;10.874;2023-09-12T12:18:19;101298.15;;;21.39;67.95
80781;BME280;70341;56.408;10.874;2023-09-12T12:20:46;101300.23;;;21.29;67.70
80781;BME280;70341;56.408;10.874;2023-09-12T12:23:13;101298.01;;;21.17;68.07
80781;BME280;70341;56.408;10.874;2023-09-12T12:25:42;101298.49;;;21.11;68.36
80781;BME280;70341;56.408;10.874;2023-09-12T12:28:09;101293.87;;;21.03;68.19
80781;BME280;70341;56.408;10.874;2023-09-12T12:30:36;101299.10;;;20.96;68.30
80781;BME280;70341;56.408;10.874;2023-09-12T12:33:10;101298.23;;;20.88;68.40
80781;BME280;70341;56.408;10.874;2023-09-12T12:36:03;101296.61;;;20.85;69.09
80781;BME280;70341;56.408;10.874;2023-09-12T12:38:34;101295.05;;;20.87;69.57
80781;BME280;70341;56.408;10.874;2023-09-12T12:41:03;101291.36;;;20.95;69.59
80781;BME280;70341;56.408;10.874;2023-09-12T12:43:31;101293.48;;;21.05;69.00
80781;BME280;70341;56.408;10.874;2023-09-12T12:45:58;101295.51;;;21.14;68.84
80781;BME280;70341;56.408;10.874;2023-09-12T12:48:32;101296.29;;;21.20;68.60
80781;BME280;70341;56.408;10.874;2023-09-12T12:51:15;101295.42;;;21.20;68.10
80781;BME280;70341;56.408;10.874;2023-09-12T12:53:47;101295.86;;;21.12;67.23
80781;BME280;70341;56.408;10.874;2023-09-12T12:56:23;101291.81;;;21.01;67.23
80781;BME280;70341;56.408;10.874;2023-09-12T12:58:58;101292.96;;;20.90;67.27
80781;BME280;70341;56.408;10.874;2023-09-12T13:01:26;101292.30;;;20.85;67.82
80781;BME280;70341;56.408;10.874;2023-09-12T13:03:54;101297.88;;;20.83;67.60
80781;BME280;70341;56.408;10.874;2023-09-12T13:06:22;101302.19;;;20.78;66.64